Wilson Gaeta — 8PTS — position and weather

sailwx.info

Track history (hours):
 
Tides and Currents Weather Stations Pressure Air Temp Water Temp Dewpoint Dewpoint Depression Visibility Wind Speed Wind Dir Waves Ship Positions

Wilson Gaeta

Last reported at 2017-Nov-23 17:00 UTC. Time now 2017-Nov-23 17:04 UTC.
Position N 62°41' E 008°33'.

Length 88 m; draft 3.6 m.

Type: Ship. MMSI: 314237000.

Date/timePositionNaut miles runAvg speedWind from/ knotsBaromVisibWave heightAir tempDewpointWater temp
2017-Nov-23 17:00N 62°41' E 008°33'0 0.0
2017-Nov-23 16:30N 62°41' E 008°33'0 0.0
2017-Nov-23 16:00N 62°41' E 008°33'0 0.0
2017-Nov-23 15:27N 62°41' E 008°33'0 0.0
2017-Nov-23 15:00N 62°41' E 008°33'0 0.0
2017-Nov-23 14:30N 62°41' E 008°33'0 0.0
2017-Nov-23 14:00N 62°41' E 008°33'0 0.0
2017-Nov-23 13:30N 62°41' E 008°33'0 0.0
2017-Nov-23 13:00N 62°41' E 008°33'0 0.0
2017-Nov-23 12:30N 62°41' E 008°33'0 0.0
2017-Nov-23 12:00N 62°41' E 008°33'0 0.0
2017-Nov-23 11:30N 62°41' E 008°33'0 0.0
2017-Nov-23 11:00N 62°41' E 008°33'0 0.0
2017-Nov-23 10:30N 62°41' E 008°33'0 0.0
2017-Nov-23 10:00N 62°41' E 008°33'0 0.0
2017-Nov-23 09:30N 62°41' E 008°33'0 0.0
2017-Nov-23 09:00N 62°41' E 008°33'0 0.0
2017-Nov-23 08:27N 62°41' E 008°33'0 0.0
2017-Nov-23 08:00N 62°41' E 008°33'0 0.0
2017-Nov-23 07:30N 62°41' E 008°33'0 0.0
2017-Nov-23 07:00N 62°41' E 008°33'0 0.0
2017-Nov-23 06:30N 62°41' E 008°33'0 0.0
2017-Nov-23 06:00N 62°41' E 008°33'0 0.0
2017-Nov-23 05:27N 62°41' E 008°33'0 0.0
2017-Nov-23 05:00N 62°41' E 008°33'0 0.0
2017-Nov-23 04:30N 62°41' E 008°33'0 0.0
2017-Nov-23 03:57N 62°41' E 008°33'0 0.0
2017-Nov-23 03:27N 62°41' E 008°33'0 0.0
2017-Nov-23 03:00N 62°41' E 008°33'0 0.0
2017-Nov-23 02:30N 62°41' E 008°33'0 0.0
2017-Nov-23 01:57N 62°41' E 008°33'0 0.0
2017-Nov-23 01:30N 62°41' E 008°33'0 0.0
2017-Nov-23 00:54N 62°41' E 008°33'0 0.0
2017-Nov-23 00:30N 62°41' E 008°33'0 0.0
2017-Nov-23 00:00N 62°41' E 008°33'0 0.0
2017-Nov-22 23:30N 62°41' E 008°33'0 0.0
2017-Nov-22 23:00N 62°41' E 008°33'0 0.0
2017-Nov-22 22:30N 62°41' E 008°33'0 0.0
2017-Nov-22 22:00N 62°41' E 008°33'0 0.0
2017-Nov-22 21:30N 62°41' E 008°33'0 0.0
2017-Nov-22 21:00N 62°41' E 008°33'0 0.0
2017-Nov-22 20:30N 62°41' E 008°33'0 0.0
2017-Nov-22 19:57N 62°41' E 008°33'0 0.0
2017-Nov-22 19:27N 62°41' E 008°33'  
2017-Nov-20 00:30N 60°50' E 004°56'2 4.6
2017-Nov-20 00:00N 60°51' E 004°52'4 8.9
2017-Nov-19 23:30N 60°52' E 004°43'5 9.3
2017-Nov-19 23:00N 60°53' E 004°34'5 9.8
2017-Nov-19 22:30N 60°57' E 004°28'5 9.6
2017-Nov-19 22:00N 61°02' E 004°26'5 9.8
2017-Nov-19 21:30N 61°06' E 004°23'510.0
2017-Nov-19 21:00N 61°11' E 004°21'510.0
2017-Nov-19 20:30N 61°16' E 004°19'42 9.5
2017-Nov-19 16:03N 61°58' E 004°26'1 9.9
2017-Nov-19 16:00N 61°59' E 004°26'5 9.8
2017-Nov-19 15:30N 62°02' E 004°33'510.0
2017-Nov-19 15:00N 62°06' E 004°40'510.1
2017-Nov-19 14:30N 62°10' E 004°48'510.1
2017-Nov-19 14:00N 62°14' E 004°54'5 9.7
2017-Nov-19 13:30N 62°18' E 005°00'5 9.4
2017-Nov-19 13:00N 62°21' E 005°07'5 9.8
2017-Nov-19 12:30N 62°25' E 005°14'5 9.7
2017-Nov-19 12:00N 62°28' E 005°21'5 9.9
2017-Nov-19 11:30N 62°32' E 005°28'510.2
2017-Nov-19 11:00N 62°36' E 005°35'510.2
2017-Nov-19 10:30N 62°40' E 005°42'5 9.9
2017-Nov-19 10:00N 62°44' E 005°49'5 9.9
2017-Nov-19 09:30N 62°47' E 005°57'510.0
2017-Nov-19 09:00N 62°51' E 006°05'510.1
2017-Nov-19 08:30N 62°54' E 006°13'510.7
2017-Nov-19 08:00N 62°57' E 006°22'5 9.8
2017-Nov-19 07:30N 62°60' E 006°31'5 9.6
2017-Nov-19 07:00N 63°03' E 006°40'4 8.9
2017-Nov-19 06:30N 63°06' E 006°47'5 9.1
2017-Nov-19 06:00N 63°08' E 006°56'4 9.0
2017-Nov-19 05:30N 63°10' E 007°05'5 9.2
2017-Nov-19 05:01N 63°12' E 007°14'5 9.3
2017-Nov-19 04:31N 63°14' E 007°23'5 9.4
2017-Nov-19 04:00N 63°15' E 007°33'510.2
2017-Nov-19 03:31N 63°14' E 007°45'510.3
2017-Nov-19 03:01N 63°13' E 007°56'611.2
2017-Nov-19 02:31N 63°16' E 008°07'611.3
2017-Nov-19 02:00N 63°19' E 008°17'611.4
2017-Nov-19 01:30N 63°23' E 008°27'611.6
2017-Nov-19 01:00N 63°25' E 008°39'611.5
2017-Nov-19 00:30N 63°27' E 008°51'611.6
2017-Nov-19 00:00N 63°30' E 009°03'510.9
2017-Nov-18 23:30N 63°32' E 009°14'510.2
2017-Nov-18 23:01N 63°37' E 009°16'510.8
2017-Nov-18 22:30N 63°42' E 009°18'611.5
2017-Nov-18 22:01N 63°45' E 009°29'510.1
2017-Nov-18 21:30N 63°49' E 009°38'0 0.5
2017-Nov-18 21:00N 63°49' E 009°38'0 0.0
2017-Nov-18 20:30N 63°49' E 009°38'0 0.0
2017-Nov-18 20:00N 63°49' E 009°38'0 0.0
2017-Nov-18 19:30N 63°49' E 009°38'0 0.0
2017-Nov-18 19:00N 63°49' E 009°38'0 0.0
2017-Nov-18 18:30N 63°49' E 009°38'0 0.0
2017-Nov-18 18:00N 63°49' E 009°38'0 0.0
2017-Nov-18 17:30N 63°49' E 009°38'0 0.0
2017-Nov-18 17:00N 63°49' E 009°38'0 0.0
2017-Nov-18 16:30N 63°49' E 009°38'0 0.0
2017-Nov-18 16:00N 63°49' E 009°38'0 0.0
2017-Nov-18 15:30N 63°49' E 009°38'0 0.0
2017-Nov-18 15:00N 63°49' E 009°38'0 0.0
2017-Nov-18 14:30N 63°49' E 009°38'0 0.0
2017-Nov-18 14:00N 63°49' E 009°38'0 0.0
2017-Nov-18 13:30N 63°49' E 009°38'0 0.0
2017-Nov-18 12:57N 63°49' E 009°38'0 0.0
2017-Nov-18 12:30N 63°49' E 009°38'0 0.0
2017-Nov-18 12:00N 63°49' E 009°38'0 0.0
2017-Nov-18 11:30N 63°49' E 009°38'0 0.0
2017-Nov-18 11:00N 63°49' E 009°38'0 0.0
2017-Nov-18 10:30N 63°49' E 009°38'0 0.0
2017-Nov-18 10:00N 63°49' E 009°38'0 0.0
2017-Nov-18 09:30N 63°49' E 009°38'0 0.0
2017-Nov-18 09:00N 63°49' E 009°38'0 0.0
2017-Nov-18 08:30N 63°49' E 009°38'0 0.0
2017-Nov-18 08:00N 63°49' E 009°38'0 0.0
2017-Nov-18 07:30N 63°49' E 009°38'0 0.0
2017-Nov-18 07:00N 63°49' E 009°38'0 0.0
2017-Nov-18 06:30N 63°49' E 009°38'0 0.0
2017-Nov-18 06:00N 63°49' E 009°38'0 0.0
2017-Nov-18 05:30N 63°49' E 009°38'0 0.0
2017-Nov-18 05:00N 63°49' E 009°38'0 0.0
2017-Nov-18 04:30N 63°49' E 009°38'0 0.0
2017-Nov-18 04:00N 63°49' E 009°38'0 0.0
2017-Nov-18 03:30N 63°49' E 009°38'0 0.0
2017-Nov-18 03:00N 63°49' E 009°38'0 0.0
2017-Nov-18 02:30N 63°49' E 009°38'0 0.0
2017-Nov-18 02:00N 63°49' E 009°38'0 0.0
2017-Nov-18 01:30N 63°49' E 009°38'0 0.0
2017-Nov-18 01:00N 63°49' E 009°38'0 0.0
2017-Nov-18 00:30N 63°49' E 009°38'0 0.0
2017-Nov-18 00:00N 63°49' E 009°38'0 0.0
2017-Nov-17 23:30N 63°49' E 009°38'0 0.0
2017-Nov-17 23:00N 63°49' E 009°38'0 0.0
2017-Nov-17 22:30N 63°49' E 009°38'0 0.0
2017-Nov-17 22:00N 63°49' E 009°38'0 0.0
2017-Nov-17 21:30N 63°49' E 009°38'0 0.0
2017-Nov-17 21:00N 63°49' E 009°38'0 0.0
2017-Nov-17 20:30N 63°49' E 009°38'0 0.0
2017-Nov-17 20:00N 63°49' E 009°38'0 0.0
2017-Nov-17 19:30N 63°49' E 009°38'0 0.0
2017-Nov-17 19:00N 63°49' E 009°38'0 0.0
2017-Nov-17 18:30N 63°49' E 009°38'0 0.0
2017-Nov-17 18:00N 63°49' E 009°38'0 0.0
2017-Nov-17 17:30N 63°49' E 009°38'0 0.0
2017-Nov-17 17:00N 63°49' E 009°38'0 0.0
2017-Nov-17 16:30N 63°49' E 009°38'0 0.0
2017-Nov-17 16:00N 63°49' E 009°38'0 0.0
2017-Nov-17 15:30N 63°49' E 009°38'0 0.0
2017-Nov-17 15:00N 63°49' E 009°38'0 0.0
2017-Nov-17 14:30N 63°49' E 009°38'0 0.0
2017-Nov-17 14:00N 63°49' E 009°38'0 0.0
2017-Nov-17 13:30N 63°49' E 009°38'0 0.0
2017-Nov-17 13:00N 63°49' E 009°38'0 0.0
2017-Nov-17 12:30N 63°49' E 009°38'0 0.0
2017-Nov-17 12:00N 63°49' E 009°38'0 0.0
2017-Nov-17 11:30N 63°49' E 009°38'0 0.0
2017-Nov-17 11:00N 63°49' E 009°38'0 0.0
2017-Nov-17 10:30N 63°49' E 009°38'0 0.0
2017-Nov-17 10:00N 63°49' E 009°38'0 0.0
2017-Nov-17 09:30N 63°49' E 009°38'0 0.0
2017-Nov-17 09:00N 63°49' E 009°38'0 0.0
2017-Nov-17 08:30N 63°49' E 009°38'0 0.0
2017-Nov-17 08:00N 63°49' E 009°38'0 0.0
2017-Nov-17 07:30N 63°49' E 009°38'0 0.0
2017-Nov-17 07:00N 63°49' E 009°38'0 0.0
2017-Nov-17 06:30N 63°49' E 009°38'0 0.0
2017-Nov-17 06:00N 63°49' E 009°38'1 2.4
2017-Nov-17 05:30N 63°48' E 009°36'5 9.9
2017-Nov-17 05:00N 63°45' E 009°28'510.5
2017-Nov-17 04:30N 63°42' E 009°18'510.3
2017-Nov-17 04:00N 63°37' E 009°16'510.2
2017-Nov-17 03:30N 63°32' E 009°14'611.5
2017-Nov-17 03:00N 63°29' E 009°03'511.0
2017-Nov-17 02:30N 63°27' E 008°52'611.2
2017-Nov-17 02:00N 63°25' E 008°40'511.0
2017-Nov-17 01:30N 63°23' E 008°29'510.9
2017-Nov-17 01:00N 63°20' E 008°19'611.6
2017-Nov-17 00:30N 63°16' E 008°09'511.2
2017-Nov-17 00:01N 63°14' E 007°58'510.4
2017-Nov-16 23:30N 63°13' E 007°47'5 9.2
2017-Nov-16 23:01N 63°15' E 007°37'510.1
2017-Nov-16 22:30N 63°14' E 007°26'510.7
2017-Nov-16 22:00N 63°12' E 007°15'510.5
2017-Nov-16 21:30N 63°10' E 007°04'510.0
2017-Nov-16 21:00N 63°08' E 006°54'5 9.7
2017-Nov-16 20:30N 63°05' E 006°46'5 9.6
2017-Nov-16 20:00N 63°02' E 006°37'5 9.7
2017-Nov-16 19:30N 62°60' E 006°29'5 9.8
2017-Nov-16 19:00N 62°57' E 006°20'510.0
2017-Nov-16 18:30N 62°53' E 006°12'510.0
2017-Nov-16 18:00N 62°50' E 006°04'5 9.7
2017-Nov-16 17:30N 62°46' E 005°56'5 9.5
2017-Nov-16 17:00N 62°43' E 005°49'5 9.8
2017-Nov-16 16:30N 62°39' E 005°42'5 9.7
2017-Nov-16 16:00N 62°36' E 005°35'5 9.6
2017-Nov-16 15:30N 62°32' E 005°29'5 9.4
2017-Nov-16 15:01N 62°29' E 005°22'5 9.5
2017-Nov-16 14:30N 62°25' E 005°15'510.1
2017-Nov-16 14:00N 62°21' E 005°07'510.0
2017-Nov-16 13:30N 62°17' E 005°01'5 9.8
2017-Nov-16 13:00N 62°13' E 004°55'5 9.9
2017-Nov-16 12:30N 62°09' E 004°50'5 9.8
2017-Nov-16 12:00N 62°05' E 004°44'5 9.6
2017-Nov-16 11:30N 62°01' E 004°40'5 9.4
2017-Nov-16 11:00N 61°56' E 004°36'5 9.1
2017-Nov-16 10:30N 61°52' E 004°32'5 9.3
2017-Nov-16 10:00N 61°48' E 004°28'5 9.4
2017-Nov-16 09:30N 61°43' E 004°27'5 9.4
2017-Nov-16 09:00N 61°39' E 004°24'5 9.7
2017-Nov-16 08:30N 61°34' E 004°22'5 9.6
2017-Nov-16 08:00N 61°29' E 004°21'5 9.9
2017-Nov-16 07:30N 61°24' E 004°20'510.0
2017-Nov-16 07:00N 61°19' E 004°19'5 9.9
2017-Nov-16 06:30N 61°14' E 004°18'510.3
2017-Nov-16 06:00N 61°09' E 004°18'510.4
2017-Nov-16 05:30N 61°04' E 004°17'510.6
2017-Nov-16 05:01N 60°59' E 004°16'510.6
2017-Nov-16 04:30N 60°53' E 004°17'511.0
2017-Nov-16 04:00N 60°48' E 004°18'510.8
2017-Nov-16 03:30N 60°43' E 004°19'123 9.3
2017-Nov-15 14:15N 58°41' E 004°54'2 8.1
2017-Nov-15 13:59N 58°39' E 004°55'4 8.4
2017-Nov-15 13:30N 58°35' E 004°56'335 8.6
2017-Nov-13 22:32N 53°00' E 004°22'0 9.1
2017-Nov-13 22:30N 53°00' E 004°22'5 9.4
2017-Nov-13 21:59N 52°56' E 004°18'  
Track history (hours):
 
Tides and Currents Weather Stations Pressure Air Temp Water Temp Dewpoint Dewpoint Depression Visibility Wind Speed Wind Dir Waves Ship Positions

Wilson Gaeta

Last reported at 2017-Nov-23 17:00 UTC. Time now 2017-Nov-23 17:04 UTC.
Position N 62°41' E 008°33'.

Length 88 m; draft 3.6 m.

Type: Ship. MMSI: 314237000.

Date/timePositionNaut miles runAvg speedWind from/ knotsBaromVisibWave heightAir tempDewpointWater temp
2017-Nov-23 17:00N 62°41' E 008°33'0 0.0
2017-Nov-23 16:30N 62°41' E 008°33'0 0.0
2017-Nov-23 16:00N 62°41' E 008°33'0 0.0
2017-Nov-23 15:27N 62°41' E 008°33'0 0.0
2017-Nov-23 15:00N 62°41' E 008°33'0 0.0
2017-Nov-23 14:30N 62°41' E 008°33'0 0.0
2017-Nov-23 14:00N 62°41' E 008°33'0 0.0
2017-Nov-23 13:30N 62°41' E 008°33'0 0.0
2017-Nov-23 13:00N 62°41' E 008°33'0 0.0
2017-Nov-23 12:30N 62°41' E 008°33'0 0.0
2017-Nov-23 12:00N 62°41' E 008°33'0 0.0
2017-Nov-23 11:30N 62°41' E 008°33'0 0.0
2017-Nov-23 11:00N 62°41' E 008°33'0 0.0
2017-Nov-23 10:30N 62°41' E 008°33'0 0.0
2017-Nov-23 10:00N 62°41' E 008°33'0 0.0
2017-Nov-23 09:30N 62°41' E 008°33'0 0.0
2017-Nov-23 09:00N 62°41' E 008°33'0 0.0
2017-Nov-23 08:27N 62°41' E 008°33'0 0.0
2017-Nov-23 08:00N 62°41' E 008°33'0 0.0
2017-Nov-23 07:30N 62°41' E 008°33'0 0.0
2017-Nov-23 07:00N 62°41' E 008°33'0 0.0
2017-Nov-23 06:30N 62°41' E 008°33'0 0.0
2017-Nov-23 06:00N 62°41' E 008°33'0 0.0
2017-Nov-23 05:27N 62°41' E 008°33'0 0.0
2017-Nov-23 05:00N 62°41' E 008°33'0 0.0
2017-Nov-23 04:30N 62°41' E 008°33'0 0.0
2017-Nov-23 03:57N 62°41' E 008°33'0 0.0
2017-Nov-23 03:27N 62°41' E 008°33'0 0.0
2017-Nov-23 03:00N 62°41' E 008°33'0 0.0
2017-Nov-23 02:30N 62°41' E 008°33'0 0.0
2017-Nov-23 01:57N 62°41' E 008°33'0 0.0
2017-Nov-23 01:30N 62°41' E 008°33'0 0.0
2017-Nov-23 00:54N 62°41' E 008°33'0 0.0
2017-Nov-23 00:30N 62°41' E 008°33'0 0.0
2017-Nov-23 00:00N 62°41' E 008°33'0 0.0
2017-Nov-22 23:30N 62°41' E 008°33'0 0.0
2017-Nov-22 23:00N 62°41' E 008°33'0 0.0
2017-Nov-22 22:30N 62°41' E 008°33'0 0.0
2017-Nov-22 22:00N 62°41' E 008°33'0 0.0
2017-Nov-22 21:30N 62°41' E 008°33'0 0.0
2017-Nov-22 21:00N 62°41' E 008°33'0 0.0
2017-Nov-22 20:30N 62°41' E 008°33'0 0.0
2017-Nov-22 19:57N 62°41' E 008°33'0 0.0
2017-Nov-22 19:27N 62°41' E 008°33'  
2017-Nov-20 00:30N 60°50' E 004°56'2 4.6
2017-Nov-20 00:00N 60°51' E 004°52'4 8.9
2017-Nov-19 23:30N 60°52' E 004°43'5 9.3
2017-Nov-19 23:00N 60°53' E 004°34'5 9.8
2017-Nov-19 22:30N 60°57' E 004°28'5 9.6
2017-Nov-19 22:00N 61°02' E 004°26'5 9.8
2017-Nov-19 21:30N 61°06' E 004°23'510.0
2017-Nov-19 21:00N 61°11' E 004°21'510.0
2017-Nov-19 20:30N 61°16' E 004°19'42 9.5
2017-Nov-19 16:03N 61°58' E 004°26'1 9.9
2017-Nov-19 16:00N 61°59' E 004°26'5 9.8
2017-Nov-19 15:30N 62°02' E 004°33'510.0
2017-Nov-19 15:00N 62°06' E 004°40'510.1
2017-Nov-19 14:30N 62°10' E 004°48'510.1
2017-Nov-19 14:00N 62°14' E 004°54'5 9.7
2017-Nov-19 13:30N 62°18' E 005°00'5 9.4
2017-Nov-19 13:00N 62°21' E 005°07'5 9.8
2017-Nov-19 12:30N 62°25' E 005°14'5 9.7
2017-Nov-19 12:00N 62°28' E 005°21'5 9.9
2017-Nov-19 11:30N 62°32' E 005°28'510.2
2017-Nov-19 11:00N 62°36' E 005°35'510.2
2017-Nov-19 10:30N 62°40' E 005°42'5 9.9
2017-Nov-19 10:00N 62°44' E 005°49'5 9.9
2017-Nov-19 09:30N 62°47' E 005°57'510.0
2017-Nov-19 09:00N 62°51' E 006°05'510.1
2017-Nov-19 08:30N 62°54' E 006°13'510.7
2017-Nov-19 08:00N 62°57' E 006°22'5 9.8
2017-Nov-19 07:30N 62°60' E 006°31'5 9.6
2017-Nov-19 07:00N 63°03' E 006°40'4 8.9
2017-Nov-19 06:30N 63°06' E 006°47'5 9.1
2017-Nov-19 06:00N 63°08' E 006°56'4 9.0
2017-Nov-19 05:30N 63°10' E 007°05'5 9.2
2017-Nov-19 05:01N 63°12' E 007°14'5 9.3
2017-Nov-19 04:31N 63°14' E 007°23'5 9.4
2017-Nov-19 04:00N 63°15' E 007°33'510.2
2017-Nov-19 03:31N 63°14' E 007°45'510.3
2017-Nov-19 03:01N 63°13' E 007°56'611.2
2017-Nov-19 02:31N 63°16' E 008°07'611.3
2017-Nov-19 02:00N 63°19' E 008°17'611.4
2017-Nov-19 01:30N 63°23' E 008°27'611.6
2017-Nov-19 01:00N 63°25' E 008°39'611.5
2017-Nov-19 00:30N 63°27' E 008°51'611.6
2017-Nov-19 00:00N 63°30' E 009°03'510.9
2017-Nov-18 23:30N 63°32' E 009°14'510.2
2017-Nov-18 23:01N 63°37' E 009°16'510.8
2017-Nov-18 22:30N 63°42' E 009°18'611.5
2017-Nov-18 22:01N 63°45' E 009°29'510.1
2017-Nov-18 21:30N 63°49' E 009°38'0 0.5
2017-Nov-18 21:00N 63°49' E 009°38'0 0.0
2017-Nov-18 20:30N 63°49' E 009°38'0 0.0
2017-Nov-18 20:00N 63°49' E 009°38'0 0.0
2017-Nov-18 19:30N 63°49' E 009°38'0 0.0
2017-Nov-18 19:00N 63°49' E 009°38'0 0.0
2017-Nov-18 18:30N 63°49' E 009°38'0 0.0
2017-Nov-18 18:00N 63°49' E 009°38'0 0.0
2017-Nov-18 17:30N 63°49' E 009°38'0 0.0
2017-Nov-18 17:00N 63°49' E 009°38'0 0.0
2017-Nov-18 16:30N 63°49' E 009°38'0 0.0
2017-Nov-18 16:00N 63°49' E 009°38'0 0.0
2017-Nov-18 15:30N 63°49' E 009°38'0 0.0
2017-Nov-18 15:00N 63°49' E 009°38'0 0.0
2017-Nov-18 14:30N 63°49' E 009°38'0 0.0
2017-Nov-18 14:00N 63°49' E 009°38'0 0.0
2017-Nov-18 13:30N 63°49' E 009°38'0 0.0
2017-Nov-18 12:57N 63°49' E 009°38'0 0.0
2017-Nov-18 12:30N 63°49' E 009°38'0 0.0
2017-Nov-18 12:00N 63°49' E 009°38'0 0.0
2017-Nov-18 11:30N 63°49' E 009°38'0 0.0
2017-Nov-18 11:00N 63°49' E 009°38'0 0.0
2017-Nov-18 10:30N 63°49' E 009°38'0 0.0
2017-Nov-18 10:00N 63°49' E 009°38'0 0.0
2017-Nov-18 09:30N 63°49' E 009°38'0 0.0
2017-Nov-18 09:00N 63°49' E 009°38'0 0.0
2017-Nov-18 08:30N 63°49' E 009°38'0 0.0
2017-Nov-18 08:00N 63°49' E 009°38'0 0.0
2017-Nov-18 07:30N 63°49' E 009°38'0 0.0
2017-Nov-18 07:00N 63°49' E 009°38'0 0.0
2017-Nov-18 06:30N 63°49' E 009°38'0 0.0
2017-Nov-18 06:00N 63°49' E 009°38'0 0.0
2017-Nov-18 05:30N 63°49' E 009°38'0 0.0
2017-Nov-18 05:00N 63°49' E 009°38'0 0.0
2017-Nov-18 04:30N 63°49' E 009°38'0 0.0
2017-Nov-18 04:00N 63°49' E 009°38'0 0.0
2017-Nov-18 03:30N 63°49' E 009°38'0 0.0
2017-Nov-18 03:00N 63°49' E 009°38'0 0.0
2017-Nov-18 02:30N 63°49' E 009°38'0 0.0
2017-Nov-18 02:00N 63°49' E 009°38'0 0.0
2017-Nov-18 01:30N 63°49' E 009°38'0 0.0
2017-Nov-18 01:00N 63°49' E 009°38'0 0.0
2017-Nov-18 00:30N 63°49' E 009°38'0 0.0
2017-Nov-18 00:00N 63°49' E 009°38'0 0.0
2017-Nov-17 23:30N 63°49' E 009°38'0 0.0
2017-Nov-17 23:00N 63°49' E 009°38'0 0.0
2017-Nov-17 22:30N 63°49' E 009°38'0 0.0
2017-Nov-17 22:00N 63°49' E 009°38'0 0.0
2017-Nov-17 21:30N 63°49' E 009°38'0 0.0
2017-Nov-17 21:00N 63°49' E 009°38'0 0.0
2017-Nov-17 20:30N 63°49' E 009°38'0 0.0
2017-Nov-17 20:00N 63°49' E 009°38'0 0.0
2017-Nov-17 19:30N 63°49' E 009°38'0 0.0
2017-Nov-17 19:00N 63°49' E 009°38'0 0.0
2017-Nov-17 18:30N 63°49' E 009°38'0 0.0
2017-Nov-17 18:00N 63°49' E 009°38'0 0.0
2017-Nov-17 17:30N 63°49' E 009°38'0 0.0
2017-Nov-17 17:00N 63°49' E 009°38'0 0.0
2017-Nov-17 16:30N 63°49' E 009°38'0 0.0
2017-Nov-17 16:00N 63°49' E 009°38'0 0.0
2017-Nov-17 15:30N 63°49' E 009°38'0 0.0
2017-Nov-17 15:00N 63°49' E 009°38'0 0.0
2017-Nov-17 14:30N 63°49' E 009°38'0 0.0
2017-Nov-17 14:00N 63°49' E 009°38'0 0.0
2017-Nov-17 13:30N 63°49' E 009°38'0 0.0
2017-Nov-17 13:00N 63°49' E 009°38'0 0.0
2017-Nov-17 12:30N 63°49' E 009°38'0 0.0
2017-Nov-17 12:00N 63°49' E 009°38'0 0.0
2017-Nov-17 11:30N 63°49' E 009°38'0 0.0
2017-Nov-17 11:00N 63°49' E 009°38'0 0.0
2017-Nov-17 10:30N 63°49' E 009°38'0 0.0
2017-Nov-17 10:00N 63°49' E 009°38'0 0.0
2017-Nov-17 09:30N 63°49' E 009°38'0 0.0
2017-Nov-17 09:00N 63°49' E 009°38'0 0.0
2017-Nov-17 08:30N 63°49' E 009°38'0 0.0
2017-Nov-17 08:00N 63°49' E 009°38'0 0.0
2017-Nov-17 07:30N 63°49' E 009°38'0 0.0
2017-Nov-17 07:00N 63°49' E 009°38'0 0.0
2017-Nov-17 06:30N 63°49' E 009°38'0 0.0
2017-Nov-17 06:00N 63°49' E 009°38'1 2.4
2017-Nov-17 05:30N 63°48' E 009°36'5 9.9
2017-Nov-17 05:00N 63°45' E 009°28'510.5
2017-Nov-17 04:30N 63°42' E 009°18'510.3
2017-Nov-17 04:00N 63°37' E 009°16'510.2
2017-Nov-17 03:30N 63°32' E 009°14'611.5
2017-Nov-17 03:00N 63°29' E 009°03'511.0
2017-Nov-17 02:30N 63°27' E 008°52'611.2
2017-Nov-17 02:00N 63°25' E 008°40'511.0
2017-Nov-17 01:30N 63°23' E 008°29'510.9
2017-Nov-17 01:00N 63°20' E 008°19'611.6
2017-Nov-17 00:30N 63°16' E 008°09'511.2
2017-Nov-17 00:01N 63°14' E 007°58'510.4
2017-Nov-16 23:30N 63°13' E 007°47'5 9.2
2017-Nov-16 23:01N 63°15' E 007°37'510.1
2017-Nov-16 22:30N 63°14' E 007°26'510.7
2017-Nov-16 22:00N 63°12' E 007°15'510.5
2017-Nov-16 21:30N 63°10' E 007°04'510.0
2017-Nov-16 21:00N 63°08' E 006°54'5 9.7
2017-Nov-16 20:30N 63°05' E 006°46'5 9.6
2017-Nov-16 20:00N 63°02' E 006°37'5 9.7
2017-Nov-16 19:30N 62°60' E 006°29'5 9.8
2017-Nov-16 19:00N 62°57' E 006°20'510.0
2017-Nov-16 18:30N 62°53' E 006°12'510.0
2017-Nov-16 18:00N 62°50' E 006°04'5 9.7
2017-Nov-16 17:30N 62°46' E 005°56'5 9.5
2017-Nov-16 17:00N 62°43' E 005°49'5 9.8
2017-Nov-16 16:30N 62°39' E 005°42'5 9.7
2017-Nov-16 16:00N 62°36' E 005°35'5 9.6
2017-Nov-16 15:30N 62°32' E 005°29'5 9.4
2017-Nov-16 15:01N 62°29' E 005°22'5 9.5
2017-Nov-16 14:30N 62°25' E 005°15'510.1
2017-Nov-16 14:00N 62°21' E 005°07'510.0
2017-Nov-16 13:30N 62°17' E 005°01'5 9.8
2017-Nov-16 13:00N 62°13' E 004°55'5 9.9
2017-Nov-16 12:30N 62°09' E 004°50'5 9.8
2017-Nov-16 12:00N 62°05' E 004°44'5 9.6
2017-Nov-16 11:30N 62°01' E 004°40'5 9.4
2017-Nov-16 11:00N 61°56' E 004°36'5 9.1
2017-Nov-16 10:30N 61°52' E 004°32'5 9.3
2017-Nov-16 10:00N 61°48' E 004°28'5 9.4
2017-Nov-16 09:30N 61°43' E 004°27'5 9.4
2017-Nov-16 09:00N 61°39' E 004°24'5 9.7
2017-Nov-16 08:30N 61°34' E 004°22'5 9.6
2017-Nov-16 08:00N 61°29' E 004°21'5 9.9
2017-Nov-16 07:30N 61°24' E 004°20'510.0
2017-Nov-16 07:00N 61°19' E 004°19'5 9.9
2017-Nov-16 06:30N 61°14' E 004°18'510.3
2017-Nov-16 06:00N 61°09' E 004°18'510.4
2017-Nov-16 05:30N 61°04' E 004°17'510.6
2017-Nov-16 05:01N 60°59' E 004°16'510.6
2017-Nov-16 04:30N 60°53' E 004°17'511.0
2017-Nov-16 04:00N 60°48' E 004°18'510.8
2017-Nov-16 03:30N 60°43' E 004°19'123 9.3
2017-Nov-15 14:15N 58°41' E 004°54'2 8.1
2017-Nov-15 13:59N 58°39' E 004°55'4 8.4
2017-Nov-15 13:30N 58°35' E 004°56'335 8.6
2017-Nov-13 22:32N 53°00' E 004°22'0 9.1
2017-Nov-13 22:30N 53°00' E 004°22'5 9.4
2017-Nov-13 21:59N 52°56' E 004°18'  

Dump ship's entire track history